Time;durP1;ratioP1;P1;durP2;ratioP2;P2;SDS_P1;SDS_P2;PMS_P1;PMS_P2;Temp;Humidity;BMP_temperature;BMP_pressure;BME280_temperature;BME280_humidity;BME280_pressure;Samples;Min_cycle;Max_cycle;Signal;HPM_P1;HPM_P2
2021/12/21 00:00:19;;;;;;;7.60;1.02;;;;;;;-3.91;100.00;97404.03;5053799;28;20041;-71
2021/12/21 00:02:48;;;;;;;2.63;0.63;;;;;;;-3.90;100.00;97405.66;5055902;28;20099;-73
2021/12/21 00:05:20;;;;;;;1.08;0.52;;;;;;;-3.95;100.00;97408.72;5058471;28;20056;-72
2021/12/21 00:07:51;;;;;;;1.45;0.60;;;;;;;-3.95;100.00;97398.25;5055564;28;20104;-71
2021/12/21 00:10:19;;;;;;;5.95;0.75;;;;;;;-3.95;100.00;97400.88;5054822;28;20112;-71
2021/12/21 00:13:39;;;;;;;5.00;0.85;;;;;;;-3.96;100.00;97406.22;5029495;28;20121;-70
2021/12/21 00:21:24;;;;;;;3.53;1.45;;;;;;;-3.96;100.00;97401.00;5057347;28;20115;-72
2021/12/21 00:26:02;;;;;;;10.27;4.05;;;;;;;-4.18;100.00;97399.44;5053500;28;20384;-73
2021/12/21 00:28:37;;;;;;;4.28;1.63;;;;;;;-4.25;100.00;97391.28;5055413;28;20471;-72
2021/12/21 00:31:03;;;;;;;2.30;0.60;;;;;;;-4.25;100.00;97385.25;5035028;28;20167;-71
2021/12/21 00:33:28;;;;;;;1.92;0.52;;;;;;;-4.23;100.00;97396.38;5053998;28;20112;-72
2021/12/21 00:35:54;;;;;;;1.20;0.52;;;;;;;-4.21;100.00;97384.81;5054241;28;20040;-71
2021/12/21 00:38:20;;;;;;;1.27;0.60;;;;;;;-4.18;100.00;97383.75;5055990;28;20414;-71
2021/12/21 00:40:45;;;;;;;5.40;0.45;;;;;;;-4.14;100.00;97386.91;5054861;28;20500;-72
2021/12/21 00:43:11;;;;;;;2.97;0.90;;;;;;;-4.13;100.00;97383.31;5052266;28;20041;-71
2021/12/21 00:45:36;;;;;;;3.30;0.70;;;;;;;-4.17;100.00;97381.97;5054622;28;20423;-74
2021/12/21 00:48:02;;;;;;;4.03;0.73;;;;;;;-4.22;100.00;97375.34;5054806;28;20032;-72
2021/12/21 00:50:29;;;;;;;2.72;0.82;;;;;;;-4.26;100.00;97373.13;5054736;28;20032;-72
2021/12/21 00:52:55;;;;;;;2.80;0.75;;;;;;;-4.31;100.00;97385.78;5053626;28;20041;-71
2021/12/21 00:55:22;;;;;;;5.40;0.60;;;;;;;-4.41;100.00;97379.69;5055744;28;20436;-72
2021/12/21 00:57:47;;;;;;;2.03;0.77;;;;;;;-4.41;100.00;97374.47;5055890;28;20044;-72
2021/12/21 01:00:16;;;;;;;1.23;0.60;;;;;;;-4.37;100.00;97374.06;5055919;28;20082;-72
2021/12/21 01:02:42;;;;;;;1.05;0.50;;;;;;;-4.43;100.00;97382.44;5053502;28;20047;-72
2021/12/21 01:05:18;;;;;;;3.05;0.90;;;;;;;-4.49;100.00;97373.34;5053835;28;20039;-72
2021/12/21 01:07:49;;;;;;;2.50;0.70;;;;;;;-4.53;100.00;97371.13;5055695;28;20045;-72
2021/12/21 01:25:47;;;;;;;1.95;0.60;;;;;;;-4.66;100.00;97355.69;5053952;28;20502;-72
2021/12/21 01:29:11;;;;;;;1.80;0.55;;;;;;;-4.59;100.00;97351.59;5053001;28;20123;-74
2021/12/21 01:36:21;;;;;;;1.25;0.60;;;;;;;-4.36;100.00;97344.34;5054996;28;20045;-72
2021/12/21 01:39:46;;;;;;;3.33;0.80;;;;;;;-4.36;100.00;97341.72;5053771;28;20344;-71
2021/12/21 01:49:49;;;;;;;1.25;0.50;;;;;;;-4.27;100.00;97340.13;5055155;28;20068;-72
2021/12/21 01:52:17;;;;;;;2.38;0.60;;;;;;;-4.16;100.00;97350.44;5053785;28;20280;-71
2021/12/21 01:54:43;;;;;;;3.38;0.73;;;;;;;-4.13;100.00;97351.97;5054197;28;20076;-71
2021/12/21 01:57:09;;;;;;;1.05;0.45;;;;;;;-4.16;100.00;97350.44;5055620;28;20028;-72
2021/12/21 01:59:36;;;;;;;3.33;0.90;;;;;;;-4.20;100.00;97351.69;5055150;28;20094;-71
2021/12/21 02:02:04;;;;;;;3.22;0.60;;;;;;;-4.20;100.00;97351.69;5050801;28;20099;-72
2021/12/21 02:04:30;;;;;;;4.75;0.70;;;;;;;-4.28;100.00;97349.75;5055975;28;20040;-72
2021/12/21 02:06:55;;;;;;;4.47;0.75;;;;;;;-4.30;100.00;97353.44;5054705;28;20032;-73
2021/12/21 02:09:31;;;;;;;3.92;0.77;;;;;;;-4.35;100.00;97350.44;5058761;28;20303;-71
2021/12/21 02:11:57;;;;;;;1.52;0.50;;;;;;;-4.34;100.00;97346.84;5057292;28;20049;-71
2021/12/21 02:14:22;;;;;;;2.63;0.63;;;;;;;-4.38;100.00;97343.66;5057067;28;20036;-72
2021/12/21 02:17:13;;;;;;;2.40;0.65;;;;;;;-4.31;100.00;97336.94;5057974;28;20029;-72
2021/12/21 02:19:54;;;;;;;3.00;0.90;;;;;;;-4.27;100.00;97337.50;5059197;28;20520;-73
2021/12/21 02:22:22;;;;;;;1.25;0.50;;;;;;;-4.26;100.00;97341.78;5060152;28;20036;-71
2021/12/21 02:25:00;;;;;;;4.10;0.52;;;;;;;-4.23;100.00;97339.69;5056228;28;20479;-71
2021/12/21 02:27:29;;;;;;;2.10;0.82;;;;;;;-4.21;100.00;97329.09;5057573;28;20476;-72
2021/12/21 02:29:55;;;;;;;2.45;0.73;;;;;;;-4.19;100.00;97332.44;5057931;28;20565;-73
2021/12/21 02:32:22;;;;;;;5.00;0.65;;;;;;;-4.26;100.00;97331.31;5057019;28;20032;-72
2021/12/21 02:34:49;;;;;;;2.30;0.70;;;;;;;-4.35;100.00;97330.34;5058882;28;20044;-71
2021/12/21 02:37:14;;;;;;;2.25;0.82;;;;;;;-4.32;100.00;97322.22;5056742;28;20044;-72
2021/12/21 02:39:40;;;;;;;4.85;0.75;;;;;;;-4.33;100.00;97315.34;5058826;28;20089;-72
2021/12/21 02:42:06;;;;;;;2.33;0.60;;;;;;;-4.29;100.00;97321.94;5059622;28;20057;-72
2021/12/21 02:44:32;;;;;;;1.77;0.77;;;;;;;-4.28;100.00;97317.53;5056881;28;20044;-72
2021/12/21 02:46:58;;;;;;;2.20;0.60;;;;;;;-4.29;100.00;97306.25;5058650;28;20470;-71
2021/12/21 02:49:24;;;;;;;2.95;0.75;;;;;;;-4.18;100.00;97315.78;5059041;28;20036;-71
2021/12/21 02:51:50;;;;;;;4.20;0.85;;;;;;;-4.15;100.00;97312.06;5059181;28;20035;-71
2021/12/21 02:54:18;;;;;;;3.70;0.85;;;;;;;-4.18;100.00;97307.94;5055328;28;20032;-71
2021/12/21 02:56:44;;;;;;;3.72;0.73;;;;;;;-4.18;100.00;97312.34;5038014;28;20067;-72
2021/12/21 02:59:15;;;;;;;1.75;0.60;;;;;;;-4.15;100.00;97306.84;5055052;28;20475;-71
2021/12/21 03:01:44;;;;;;;0.98;0.43;;;;;;;-4.15;100.00;97304.22;5056892;28;20136;-72
2021/12/21 03:04:09;;;;;;;2.67;0.60;;;;;;;-4.15;100.00;97304.22;5055516;28;20401;-72
2021/12/21 03:14:50;;;;;;;1.60;0.63;;;;;;;-4.11;100.00;97310.84;5038479;28;20484;-71
2021/12/21 03:17:18;;;;;;;2.97;0.85;;;;;;;-4.18;100.00;97314.97;5057070;28;20063;-72
2021/12/21 03:19:44;;;;;;;4.18;0.60;;;;;;;-4.24;100.00;97311.91;5056763;28;20047;-73
2021/12/21 03:22:11;;;;;;;2.67;1.00;;;;;;;-4.28;100.00;97307.09;5055369;28;20029;-72
2021/12/21 03:24:37;;;;;;;2.83;0.88;;;;;;;-4.31;100.00;97313.41;5055905;28;20082;-71
2021/12/21 03:27:04;;;;;;;2.92;0.75;;;;;;;-4.33;100.00;97311.91;5056530;28;20040;-71
2021/12/21 03:29:30;;;;;;;1.25;0.57;;;;;;;-4.38;100.00;97316.69;5057559;28;20391;-72
2021/12/21 03:31:55;;;;;;;1.42;0.50;;;;;;;-4.39;100.00;97326.31;5056103;28;20032;-71
2021/12/21 03:34:21;;;;;;;3.83;0.73;;;;;;;-4.42;100.00;97321.38;5056659;28;20601;-72
2021/12/21 03:36:46;;;;;;;3.58;0.80;;;;;;;-4.42;100.00;97320.56;5053455;28;20040;-71
2021/12/21 03:39:19;;;;;;;5.00;0.70;;;;;;;-4.45;100.00;97323.41;5056734;28;20045;-71
2021/12/21 03:41:56;;;;;;;3.13;0.70;;;;;;;-4.50;100.00;97321.22;5041686;28;20071;-71
2021/12/21 03:44:23;;;;;;;1.60;0.50;;;;;;;-4.53;100.00;97313.63;5054736;28;20107;-71
2021/12/21 03:46:52;;;;;;;5.28;0.90;;;;;;;-4.59;100.00;97312.41;5055747;28;20056;-72
2021/12/21 03:50:11;;;;;;;2.03;0.80;;;;;;;-4.70;100.00;97302.03;5056907;28;20044;-71
2021/12/21 03:52:14;;;;;;;8.43;0.88;;;;;;;-4.78;100.00;97318.38;5044495;28;20106;-72
2021/12/21 03:54:43;;;;;;;4.15;0.73;;;;;;;-4.82;100.00;97317.00;5056354;28;20414;-73
2021/12/21 03:57:09;;;;;;;2.13;0.82;;;;;;;-4.87;100.00;97315.75;5054361;28;20056;-71
2021/12/21 03:59:35;;;;;;;2.10;0.70;;;;;;;-4.94;100.00;97318.03;5057156;28;20194;-72
2021/12/21 04:02:01;;;;;;;2.03;0.82;;;;;;;-4.96;100.00;97316.53;5053073;28;20127;-72
2021/12/21 04:04:27;;;;;;;1.85;0.65;;;;;;;-4.98;100.00;97321.03;5038773;28;20124;-71
2021/12/21 04:06:53;;;;;;;9.18;3.03;;;;;;;-5.03;100.00;97329.28;5054377;28;20583;-74
2021/12/21 04:09:19;;;;;;;49.00;13.98;;;;;;;-5.07;100.00;97331.31;5056122;28;20036;-72
2021/12/21 04:11:44;;;;;;;18.60;4.10;;;;;;;-5.09;100.00;97329.78;5055595;28;20435;-72
2021/12/21 04:14:11;;;;;;;5.13;1.25;;;;;;;-5.12;100.00;97330.88;5053311;28;20059;-72
2021/12/21 04:16:37;;;;;;;1.88;0.68;;;;;;;-5.15;100.00;97318.06;5052531;28;20037;-72
2021/12/21 04:19:03;;;;;;;4.47;1.00;;;;;;;-5.10;100.00;97323.75;5056333;28;20425;-71
2021/12/21 04:21:29;;;;;;;2.72;1.50;;;;;;;-5.03;100.00;97325.84;5054671;28;20463;-71
2021/12/21 04:23:55;;;;;;;5.10;0.80;;;;;;;-5.05;100.00;97320.75;5057176;28;20552;-73
2021/12/21 04:26:21;;;;;;;4.10;1.05;;;;;;;-5.08;100.00;97319.22;5055575;28;20029;-73
2021/12/21 04:28:47;;;;;;;4.22;1.00;;;;;;;-5.09;100.00;97314.94;5052421;28;20060;-71
2021/12/21 04:31:12;;;;;;;2.53;0.90;;;;;;;-5.09;100.00;97308.91;5054016;28;20154;-73
2021/12/21 04:33:42;;;;;;;3.80;0.80;;;;;;;-5.15;100.00;97314.63;5055351;28;20407;-71
2021/12/21 04:36:09;;;;;;;3.25;0.90;;;;;;;-5.22;100.00;97306.50;5056848;28;20360;-72
2021/12/21 04:38:38;;;;;;;2.08;0.68;;;;;;;-5.21;100.00;97312.56;5054218;28;20036;-71
2021/12/21 04:41:12;;;;;;;3.78;0.70;;;;;;;-5.18;100.00;97304.47;5053807;28;20546;-72
2021/12/21 04:43:38;;;;;;;3.15;0.70;;;;;;;-5.19;100.00;97305.44;5056940;28;20044;-72
2021/12/21 04:46:04;;;;;;;1.52;0.65;;;;;;;-5.20;100.00;97299.38;5055314;28;20089;-72
2021/12/21 04:48:30;;;;;;;3.40;1.08;;;;;;;-5.21;100.00;97302.13;5055004;28;20117;-71
2021/12/21 04:50:56;;;;;;;4.13;1.30;;;;;;;-5.19;100.00;97303.66;5055214;28;20515;-72
2021/12/21 04:53:22;;;;;;;3.90;1.55;;;;;;;-5.19;100.00;97308.03;5055192;28;20029;-72
2021/12/21 04:55:48;;;;;;;4.28;1.42;;;;;;;-5.27;100.00;97306.06;5054649;28;20403;-71
2021/12/21 04:58:13;;;;;;;12.02;7.05;;;;;;;-5.26;100.00;97297.28;5054631;28;20044;-71
2021/12/21 05:00:42;;;;;;;6.38;4.00;;;;;;;-5.19;100.00;97302.81;5054731;28;20049;-71
2021/12/21 05:03:07;;;;;;;6.05;3.05;;;;;;;-5.14;100.00;97309.28;5056216;28;20073;-73
2021/12/21 05:05:33;;;;;;;4.63;2.45;;;;;;;-5.17;100.00;97300.91;5054009;28;20057;-71
2021/12/21 05:08:10;;;;;;;7.65;3.08;;;;;;;-5.08;100.00;97300.94;5055447;28;20033;-72
2021/12/21 05:10:45;;;;;;;8.55;4.47;;;;;;;-5.07;100.00;97302.59;5055338;28;20375;-72
2021/12/21 05:13:12;;;;;;;7.95;3.30;;;;;;;-5.05;100.00;97305.09;5055309;28;20217;-71
2021/12/21 05:15:38;;;;;;;8.82;3.45;;;;;;;-5.12;100.00;97306.56;5054576;28;20070;-72
2021/12/21 05:18:03;;;;;;;24.15;8.07;;;;;;;-5.16;100.00;97299.94;5057193;28;20029;-71
2021/12/21 05:20:29;;;;;;;17.23;7.00;;;;;;;-5.14;100.00;97300.63;5052836;28;20375;-72
2021/12/21 05:22:54;;;;;;;11.45;4.47;;;;;;;-5.15;100.00;97299.81;5053286;28;20090;-73
2021/12/21 05:25:20;;;;;;;8.60;1.63;;;;;;;-5.18;100.00;97294.03;5053471;28;20040;-71
2021/12/21 05:27:48;;;;;;;19.42;5.60;;;;;;;-5.28;100.00;97301.00;5053053;28;20056;-73
2021/12/21 05:30:14;;;;;;;7.15;3.22;;;;;;;-5.53;100.00;97276.94;5053510;28;20490;-71
2021/12/21 05:32:40;;;;;;;5.75;1.83;;;;;;;-5.46;100.00;97296.34;5054823;28;20041;-72
2021/12/21 05:35:07;;;;;;;5.28;1.17;;;;;;;-5.53;100.00;97291.75;5051454;28;20033;-72
2021/12/21 05:37:32;;;;;;;3.15;1.05;;;;;;;-5.59;100.00;97302.72;5054516;28;20110;-71
2021/12/21 05:40:10;;;;;;;3.35;1.05;;;;;;;-5.62;100.00;97295.97;5053576;28;20045;-73
2021/12/21 05:42:35;;;;;;;2.25;1.00;;;;;;;-5.62;100.00;97309.00;5059848;28;20107;-71
2021/12/21 05:45:01;;;;;;;5.85;1.02;;;;;;;-5.65;100.00;97299.66;5057436;28;20032;-71
2021/12/21 05:47:29;;;;;;;4.07;1.10;;;;;;;-5.79;100.00;97297.38;5044757;28;20028;-71
2021/12/21 05:49:55;;;;;;;3.92;0.75;;;;;;;-5.84;100.00;97304.72;5057644;28;20040;-71
2021/12/21 05:52:20;;;;;;;1.50;0.70;;;;;;;-5.89;100.00;97297.31;5058971;28;20230;-71
2021/12/21 05:54:46;;;;;;;3.33;0.80;;;;;;;-5.92;100.00;97284.53;5058209;28;20503;-72
2021/12/21 05:57:12;;;;;;;3.83;0.95;;;;;;;-5.86;100.00;97301.44;5057773;28;20492;-71
2021/12/21 05:59:37;;;;;;;2.10;0.90;;;;;;;-5.85;100.00;97304.88;5058938;28;20037;-71
2021/12/21 06:02:03;;;;;;;4.82;1.70;;;;;;;-5.86;100.00;97300.59;5059082;28;20387;-71
2021/12/21 06:04:29;;;;;;;2.85;1.13;;;;;;;-5.88;100.00;97293.75;5056306;28;20383;-71
2021/12/21 06:06:55;;;;;;;5.07;1.77;;;;;;;-5.90;100.00;97300.03;5056082;28;20113;-73
2021/12/21 06:09:20;;;;;;;11.05;2.60;;;;;;;-5.93;100.00;97301.13;5059308;28;20060;-72
2021/12/21 06:11:55;;;;;;;11.38;3.70;;;;;;;-5.88;100.00;97308.56;5059813;28;20523;-72
2021/12/21 06:14:50;;;;;;;7.75;1.88;;;;;;;-5.91;100.00;97288.81;5059079;28;20040;-72
2021/12/21 06:27:54;;;;;;;4.55;1.08;;;;;;;-5.57;100.00;97306.84;5058435;28;20086;-72
2021/12/21 06:30:19;;;;;;;3.22;1.20;;;;;;;-5.57;100.00;97304.25;5055192;28;20246;-71
2021/12/21 06:32:45;;;;;;;4.57;2.03;;;;;;;-5.55;100.00;97301.50;5057091;28;20033;-72
2021/12/21 06:35:12;;;;;;;6.43;2.17;;;;;;;-5.47;100.00;97299.09;5058431;28;20032;-71
2021/12/21 06:37:37;;;;;;;10.77;3.55;;;;;;;-5.43;100.00;97303.09;5056521;28;20241;-72
2021/12/21 06:40:04;;;;;;;7.90;3.20;;;;;;;-5.42;100.00;97307.38;5056398;28;20033;-73
2021/12/21 06:42:30;;;;;;;11.57;4.25;;;;;;;-5.40;100.00;97305.44;5056508;28;20051;-71
2021/12/21 06:44:58;;;;;;;8.13;3.85;;;;;;;-5.38;100.00;97311.34;5056489;28;20041;-71
2021/12/21 06:52:54;;;;;;;9.35;4.05;;;;;;;-5.50;100.00;97312.41;5054244;28;20048;-71
2021/12/21 06:55:20;;;;;;;11.43;3.55;;;;;;;-5.53;100.00;97302.19;5059510;28;20395;-73
2021/12/21 06:57:46;;;;;;;11.30;4.60;;;;;;;-5.48;100.00;97311.31;5058360;28;20033;-71
2021/12/21 07:00:16;;;;;;;8.43;2.10;;;;;;;-5.55;100.00;97319.75;5056733;28;21672;-71
2021/12/21 07:02:43;;;;;;;7.38;2.83;;;;;;;-5.71;100.00;97317.59;5055742;28;20139;-72
2021/12/21 07:05:09;;;;;;;7.85;3.10;;;;;;;-5.75;100.00;97324.03;5057586;28;20124;-71
2021/12/21 07:07:36;;;;;;;4.38;1.90;;;;;;;-5.81;100.00;97321.94;5057519;28;20048;-71
2021/12/21 07:10:06;;;;;;;9.38;3.72;;;;;;;-5.78;100.00;97316.44;5055511;28;20543;-71
2021/12/21 07:20:15;;;;;;;10.10;3.63;;;;;;;-5.60;100.00;97307.13;5056791;28;20417;-71
2021/12/21 07:22:40;;;;;;;8.18;2.85;;;;;;;-5.54;100.00;97322.25;5055928;28;20314;-71
2021/12/21 07:25:06;;;;;;;9.50;3.53;;;;;;;-5.49;100.00;97314.88;5056981;28;20055;-73
2021/12/21 07:27:32;;;;;;;7.07;3.30;;;;;;;-5.51;100.00;97306.34;5058082;28;20694;-71
2021/12/21 07:29:57;;;;;;;6.30;3.33;;;;;;;-5.51;100.00;97315.97;5054926;28;20033;-72
2021/12/21 07:32:23;;;;;;;7.25;2.67;;;;;;;-5.50;100.00;97315.00;5055827;28;20043;-71
2021/12/21 07:34:48;;;;;;;7.97;2.60;;;;;;;-5.44;100.00;97315.31;5058076;28;20048;-71
2021/12/21 07:37:14;;;;;;;8.00;2.00;;;;;;;-5.40;100.00;97316.72;5055566;28;20029;-71
2021/12/21 07:39:39;;;;;;;4.82;2.03;;;;;;;-5.35;100.00;97327.59;5057527;28;20036;-71
2021/12/21 07:42:05;;;;;;;7.05;2.42;;;;;;;-5.33;100.00;97330.91;5057455;28;20048;-71
2021/12/21 07:44:32;;;;;;;5.70;2.90;;;;;;;-5.29;100.00;97328.00;5039704;28;20129;-71
2021/12/21 07:46:57;;;;;;;12.88;3.20;;;;;;;-5.32;100.00;97329.94;5055138;28;20468;-71
2021/12/21 07:49:23;;;;;;;8.35;2.47;;;;;;;-5.36;100.00;97317.28;5057905;28;20037;-71
2021/12/21 07:51:49;;;;;;;7.20;3.05;;;;;;;-5.31;100.00;97328.16;5056108;28;20119;-73
2021/12/21 07:54:15;;;;;;;7.07;1.80;;;;;;;-5.36;100.00;97333.78;5055676;28;20037;-71
2021/12/21 07:56:41;;;;;;;7.47;2.85;;;;;;;-5.29;100.00;97338.44;5057878;28;20032;-71
2021/12/21 07:59:06;;;;;;;21.17;6.00;;;;;;;-5.32;100.00;97337.75;5057420;28;20040;-73
2021/12/21 08:01:32;;;;;;;31.63;7.45;;;;;;;-5.38;100.00;97338.28;5053576;28;20049;-71
2021/12/21 08:03:58;;;;;;;49.20;11.07;;;;;;;-5.36;100.00;97340.78;5054160;28;20041;-71
2021/12/21 08:06:25;;;;;;;39.38;11.63;;;;;;;-5.37;100.00;97333.88;5056514;28;20303;-72
2021/12/21 08:08:52;;;;;;;14.45;4.22;;;;;;;-5.38;100.00;97343.50;5036163;28;20065;-71
2021/12/21 08:14:04;;;;;;;17.90;5.15;;;;;;;-5.34;100.00;97344.06;5057221;28;20041;-71
2021/12/21 08:16:29;;;;;;;15.20;5.00;;;;;;;-5.33;100.00;97335.28;5054429;28;20632;-71
2021/12/21 08:18:55;;;;;;;6.40;3.65;;;;;;;-5.26;100.00;97343.44;5054667;28;20041;-72
2021/12/21 08:21:24;;;;;;;6.13;3.13;;;;;;;-5.25;100.00;97340.69;5055749;28;20044;-71
2021/12/21 08:23:49;;;;;;;12.70;3.78;;;;;;;-5.19;100.00;97342.78;5056231;28;20048;-70
2021/12/21 08:26:15;;;;;;;4.35;2.20;;;;;;;-5.14;100.00;97352.81;5054861;28;20074;-71
2021/12/21 08:28:41;;;;;;;7.35;1.92;;;;;;;-5.20;100.00;97350.75;5056613;28;20041;-71
2021/12/21 08:31:10;;;;;;;4.82;1.92;;;;;;;-5.20;100.00;97346.38;5054395;28;20036;-71
2021/12/21 08:33:36;;;;;;;4.93;1.73;;;;;;;-5.18;100.00;97341.00;5055522;28;20621;-71
2021/12/21 08:36:04;;;;;;;3.17;1.50;;;;;;;-5.18;100.00;97343.63;5058644;28;20435;-71
2021/12/21 08:38:31;;;;;;;6.57;2.10;;;;;;;-5.16;100.00;97347.75;5054816;28;20037;-72
2021/12/21 08:40:58;;;;;;;7.63;3.00;;;;;;;-5.12;100.00;97343.09;5056167;28;20040;-71
2021/12/21 08:43:28;;;;;;;13.85;5.07;;;;;;;-5.14;100.00;97340.59;5057270;28;20483;-72
2021/12/21 08:45:55;;;;;;;9.45;4.88;;;;;;;-5.13;100.00;97341.47;5054876;28;20448;-72
2021/12/21 08:48:21;;;;;;;12.48;4.75;;;;;;;-5.02;100.00;97337.94;5056201;28;20032;-71
2021/12/21 08:50:49;;;;;;;11.35;3.38;;;;;;;-4.98;100.00;97339.31;5057923;28;20036;-70
2021/12/21 08:53:15;;;;;;;5.95;2.20;;;;;;;-4.88;100.00;97335.81;5050856;28;20035;-73
2021/12/21 08:55:42;;;;;;;4.20;1.98;;;;;;;-4.74;100.00;97344.25;5056718;28;20032;-71
2021/12/21 08:58:09;;;;;;;6.55;2.35;;;;;;;-4.65;100.00;97343.44;5056125;28;20032;-71
2021/12/21 09:00:35;;;;;;;4.45;1.92;;;;;;;-4.48;100.00;97345.44;5056282;28;20066;-71
2021/12/21 09:03:01;;;;;;;4.50;2.00;;;;;;;-4.30;100.00;97349.03;5057020;28;20110;-71
2021/12/21 09:05:29;;;;;;;7.68;1.80;;;;;;;-4.22;100.00;97348.38;5056667;28;20074;-71
2021/12/21 09:07:55;;;;;;;7.85;2.40;;;;;;;-4.07;100.00;97344.41;5055853;28;20353;-71
2021/12/21 09:10:22;;;;;;;6.72;2.47;;;;;;;-3.85;100.00;97345.13;5043319;28;20265;-71
2021/12/21 09:12:49;;;;;;;7.50;2.70;;;;;;;-3.57;100.00;97349.53;5056772;28;20338;-71
2021/12/21 09:15:16;;;;;;;5.00;2.20;;;;;;;-3.07;100.00;97341.47;5053174;28;20033;-71
2021/12/21 09:17:44;;;;;;;9.02;2.25;;;;;;;-1.86;100.00;97343.09;5056244;28;20029;-71
2021/12/21 09:20:13;;;;;;;6.70;1.90;;;;;;;-0.42;100.00;97330.28;5053331;28;20051;-71
2021/12/21 09:22:39;;;;;;;6.75;1.77;;;;;;;1.25;100.00;97336.19;5055575;28;20390;-71
2021/12/21 09:25:05;;;;;;;4.00;1.42;;;;;;;2.67;89.60;97325.41;5058985;28;20044;-71
2021/12/21 09:27:31;;;;;;;5.93;1.80;;;;;;;3.80;78.26;97330.53;5056583;28;20025;-71
2021/12/21 09:29:57;;;;;;;5.05;2.03;;;;;;;4.74;71.27;97324.19;5056147;28;20051;-72
2021/12/21 09:32:22;;;;;;;6.70;1.60;;;;;;;5.38;66.09;97330.44;5054147;28;20047;-72
2021/12/21 09:34:48;;;;;;;4.22;1.38;;;;;;;6.29;58.98;97307.97;5054459;28;20041;-72
2021/12/21 09:37:17;;;;;;;4.82;1.55;;;;;;;6.92;55.60;97327.09;5053378;28;20658;-71
2021/12/21 09:39:51;;;;;;;5.55;2.08;;;;;;;7.46;52.65;97326.03;5054270;28;20256;-72
2021/12/21 09:42:19;;;;;;;7.38;3.50;;;;;;;8.04;52.24;97320.78;5055094;28;20040;-73
2021/12/21 09:44:45;;;;;;;9.32;2.70;;;;;;;9.09;48.97;97323.84;5055660;28;20403;-74
2021/12/21 09:47:12;;;;;;;6.55;2.08;;;;;;;9.38;46.63;97332.25;5057003;28;20037;-72
2021/12/21 09:49:39;;;;;;;4.03;1.30;;;;;;;8.98;46.67;97329.09;5053171;28;20496;-72
2021/12/21 09:52:06;;;;;;;5.13;2.40;;;;;;;9.51;45.40;97326.78;5055004;28;20125;-72
2021/12/21 09:54:37;;;;;;;16.00;5.82;;;;;;;10.44;42.43;97321.22;5056598;28;20032;-72
2021/12/21 09:57:04;;;;;;;4.53;1.67;;;;;;;10.21;42.43;97323.75;5054680;28;20152;-72
2021/12/21 09:59:29;;;;;;;13.40;4.70;;;;;;;10.49;42.88;97324.00;5055357;28;20048;-75
2021/12/21 10:01:57;;;;;;;25.33;9.05;;;;;;;10.67;44.58;97327.72;5058803;28;20381;-72
2021/12/21 10:04:27;;;;;;;13.23;3.83;;;;;;;10.05;41.01;97328.66;5064329;28;20068;-69
2021/12/21 10:06:54;;;;;;;20.95;8.75;;;;;;;10.39;43.07;97318.41;5056360;28;20488;-69
2021/12/21 10:09:23;;;;;;;13.35;3.85;;;;;;;10.37;41.99;97317.81;5059794;28;20040;-69
2021/12/21 10:11:50;;;;;;;9.98;3.88;;;;;;;10.25;42.47;97320.41;5068807;28;20801;-71
2021/12/21 10:14:18;;;;;;;32.50;9.88;;;;;;;9.76;40.99;97311.50;5066182;28;20455;-70
2021/12/21 10:16:47;;;;;;;21.15;5.68;;;;;;;10.81;41.14;97300.50;5054545;28;20029;-71
2021/12/21 10:19:23;;;;;;;17.00;5.20;;;;;;;11.39;38.51;97305.13;5054692;28;20059;-69
2021/12/21 10:21:49;;;;;;;18.98;4.97;;;;;;;11.03;40.14;97302.63;5054002;28;20213;-70
2021/12/21 10:24:27;;;;;;;23.73;6.13;;;;;;;11.19;37.91;97310.00;5052637;28;20590;-71
2021/12/21 10:27:04;;;;;;;9.75;3.00;;;;;;;10.51;39.67;97307.75;5054224;28;20033;-72
2021/12/21 10:29:41;;;;;;;22.33;5.68;;;;;;;11.27;38.26;97301.59;5059813;28;20045;-70
2021/12/21 10:32:06;;;;;;;20.40;4.53;;;;;;;10.71;37.74;97296.75;5055338;28;21030;-72
2021/12/21 10:34:32;;;;;;;23.35;6.75;;;;;;;11.58;37.18;97299.63;5057240;28;20073;-70
2021/12/21 10:36:57;;;;;;;20.42;5.10;;;;;;;12.15;37.49;97295.25;5058767;28;20123;-71
2021/12/21 10:39:28;;;;;;;23.73;5.47;;;;;;;12.03;37.62;97283.72;5056552;28;20041;-71
2021/12/21 10:41:58;;;;;;;11.20;3.30;;;;;;;11.65;36.91;97293.09;5060496;28;20408;-72
2021/12/21 10:44:24;;;;;;;;;;;;;;;11.15;36.92;97292.75;5057148;28;20498;-70
2021/12/21 10:46:53;;;;;;;9.23;2.92;;;;;;;11.01;37.13;97296.69;5057023;28;19912;-71
2021/12/21 10:49:27;;;;;;;8.25;3.05;;;;;;;11.02;37.59;97299.13;5058654;28;20024;-70
2021/12/21 10:51:54;;;;;;;11.82;3.25;;;;;;;12.01;36.77;97287.72;5056451;28;20032;-70
2021/12/21 10:54:30;;;;;;;9.85;2.83;;;;;;;12.70;35.37;97285.81;5058468;28;20045;-70
2021/12/21 10:57:01;;;;;;;7.35;2.60;;;;;;;13.19;35.48;97278.03;5037944;28;20394;-70
2021/12/21 10:59:31;;;;;;;11.10;3.67;;;;;;;13.04;33.98;97274.03;5057835;28;20043;-71
2021/12/21 11:02:13;;;;;;;9.13;3.00;;;;;;;13.29;33.79;97275.53;5055999;28;20578;-70
2021/12/21 11:04:42;;;;;;;11.25;3.10;;;;;;;14.89;31.13;97278.03;5057397;28;20060;-70
2021/12/21 11:07:26;;;;;;;12.65;3.20;;;;;;;14.57;33.56;97269.91;5055179;28;20039;-72
2021/12/21 11:10:09;;;;;;;10.15;2.75;;;;;;;14.02;32.96;97269.00;5057833;28;20035;-70
2021/12/21 11:12:53;;;;;;;13.85;2.60;;;;;;;13.18;33.28;97265.66;5055571;28;20044;-72
2021/12/21 11:15:29;;;;;;;12.85;2.78;;;;;;;14.21;33.78;97264.91;5056117;28;20371;-72
2021/12/21 11:18:07;;;;;;;7.82;3.00;;;;;;;13.53;32.43;97266.19;5057582;28;20037;-73
2021/12/21 11:20:35;;;;;;;8.82;2.53;;;;;;;14.20;33.96;97260.59;5056062;28;20045;-73
2021/12/21 11:23:02;;;;;;;8.13;2.42;;;;;;;13.82;32.84;97260.69;5057504;28;20720;-74
2021/12/21 11:25:27;;;;;;;9.93;2.85;;;;;;;13.38;31.63;97258.75;5057588;28;20063;-72
2021/12/21 11:27:53;;;;;;;11.13;2.80;;;;;;;14.22;31.31;97258.47;5056896;28;20330;-73
2021/12/21 11:30:24;;;;;;;7.00;1.88;;;;;;;13.81;32.17;97256.34;5055026;28;20036;-73
2021/12/21 11:32:52;;;;;;;8.75;2.63;;;;;;;15.28;30.93;97252.47;5056322;28;20071;-70
2021/12/21 11:37:51;;;;;;;9.82;2.30;;;;;;;15.46;27.34;97239.63;5056251;28;20106;-70
2021/12/21 11:40:28;;;;;;;10.93;2.63;;;;;;;14.98;29.21;97238.75;5054437;28;20252;-71
2021/12/21 11:43:10;;;;;;;8.23;2.47;;;;;;;15.47;28.79;97243.94;5052581;28;20071;-71
2021/12/21 11:45:49;;;;;;;9.50;2.83;;;;;;;15.61;27.44;97242.47;5038551;28;20530;-72
2021/12/21 11:48:17;;;;;;;5.03;2.45;;;;;;;14.52;29.07;97237.53;5056180;28;20034;-72
2021/12/21 11:50:45;;;;;;;9.82;3.50;;;;;;;15.61;29.52;97228.97;5057367;28;20503;-72
2021/12/21 11:53:14;;;;;;;8.13;2.13;;;;;;;17.67;26.69;97227.13;5057464;28;20082;-72
2021/12/21 11:55:43;;;;;;;8.68;3.75;;;;;;;17.20;25.57;97222.88;5057017;28;20102;-71
2021/12/21 11:58:21;;;;;;;8.25;2.28;;;;;;;15.62;27.39;97214.41;5056064;28;20403;-71
2021/12/21 12:00:53;;;;;;;11.73;2.72;;;;;;;16.35;29.27;97215.22;5055099;28;20074;-72
2021/12/21 12:03:21;;;;;;;5.75;1.90;;;;;;;18.54;25.19;97216.72;5061786;28;20021;-73
2021/12/21 12:06:02;;;;;;;5.10;2.05;;;;;;;19.49;23.89;97210.78;5057940;28;20044;-71
2021/12/21 12:08:49;;;;;;;4.25;1.60;;;;;;;21.16;22.02;97206.91;5045043;28;20044;-72
2021/12/21 12:11:20;;;;;;;5.82;1.65;;;;;;;21.56;20.61;97205.44;5051887;28;20041;-72
2021/12/21 12:13:46;;;;;;;8.90;2.38;;;;;;;20.00;21.57;97218.41;5057955;28;20044;-72
2021/12/21 12:16:16;;;;;;;8.20;2.60;;;;;;;18.29;23.73;97217.69;5057514;28;21171;-73
2021/12/21 12:18:48;;;;;;;8.45;2.10;;;;;;;17.32;23.77;97215.28;5056629;28;20040;-72
2021/12/21 12:21:23;;;;;;;10.05;2.20;;;;;;;14.99;27.17;97219.63;5055620;28;20098;-72
2021/12/21 12:23:56;;;;;;;12.80;4.28;;;;;;;15.94;26.92;97199.97;5053990;28;20164;-72
2021/12/21 12:26:30;;;;;;;11.68;3.30;;;;;;;16.90;25.67;97210.19;5057439;28;20386;-71
2021/12/21 12:29:09;;;;;;;7.65;2.20;;;;;;;17.57;25.21;97206.28;5056395;28;20052;-72
2021/12/21 12:31:38;;;;;;;11.70;4.00;;;;;;;18.12;23.60;97198.25;5053890;28;20045;-71
2021/12/21 12:34:04;;;;;;;5.70;2.20;;;;;;;17.09;26.76;97196.91;5052581;28;20036;-73
2021/12/21 12:36:51;;;;;;;11.57;2.58;;;;;;;15.84;25.95;97198.03;5055345;28;20032;-73
2021/12/21 12:39:41;;;;;;;6.63;1.75;;;;;;;16.15;25.93;97193.56;5056777;28;20040;-71
2021/12/21 12:42:09;;;;;;;8.83;2.57;;;;;;;13.92;29.07;97198.91;5057925;28;20437;-71
2021/12/21 12:44:38;;;;;;;13.77;6.22;;;;;;;9.82;35.39;97210.09;5052600;28;20338;-71
2021/12/21 12:47:05;;;;;;;8.13;2.88;;;;;;;7.90;40.30;97217.09;5054286;28;20032;-73